Time;durP1;ratioP1;P1;durP2;ratioP2;P2;SDS_P1;SDS_P2;PMS_P1;PMS_P2;Temp;Humidity;BMP_temperature;BMP_pressure;BME280_temperature;BME280_humidity;BME280_pressure;Samples;Min_cycle;Max_cycle;Signal;HPM_P1;HPM_P2
2022/06/01 00:01:02;;;;;;;5.32;4.68;;;;;;;;;;4889488;29;20307;-85
2022/06/01 00:03:30;;;;;;;4.75;3.58;;;;;;;;;;4894635;29;20049;-84
2022/06/01 00:05:58;;;;;;;4.07;3.58;;;;;;;;;;4881368;29;20045;-84
2022/06/01 00:08:25;;;;;;;4.70;4.15;;;;;;;;;;4860822;29;20057;-84
2022/06/01 00:10:57;;;;;;;5.28;3.70;;;;;;;;;;4874258;29;20480;-84
2022/06/01 00:13:24;;;;;;;4.40;4.00;;;;;;;;;;4864173;29;20053;-83
2022/06/01 00:15:52;;;;;;;3.70;3.40;;;;;;;;;;4868658;29;20046;-84
2022/06/01 00:18:19;;;;;;;5.35;3.42;;;;;;;;;;4882207;29;20045;-83
2022/06/01 00:20:46;;;;;;;4.35;4.05;;;;;;;;;;4871955;29;20049;-83
2022/06/01 00:23:14;;;;;;;6.05;3.78;;;;;;;;;;4866398;29;20061;-84
2022/06/01 00:25:42;;;;;;;5.22;4.03;;;;;;;;;;4870767;29;20056;-85
2022/06/01 00:28:10;;;;;;;5.88;4.28;;;;;;;;;;4865680;29;20723;-83
2022/06/01 00:30:38;;;;;;;4.63;4.32;;;;;;;;;;4862546;29;20477;-84
2022/06/01 00:33:05;;;;;;;4.35;3.90;;;;;;;;;;4852594;29;20145;-84
2022/06/01 00:35:33;;;;;;;5.13;4.10;;;;;;;;;;4869754;29;20145;-83
2022/06/01 00:38:00;;;;;;;4.43;4.10;;;;;;;;;;4862697;29;20037;-82
2022/06/01 00:40:28;;;;;;;4.63;4.22;;;;;;;;;;4858991;29;20034;-83
2022/06/01 00:42:57;;;;;;;8.23;4.40;;;;;;;;;;4856779;29;20076;-84
2022/06/01 00:45:26;;;;;;;4.35;3.55;;;;;;;;;;4870599;29;20641;-83
2022/06/01 00:47:53;;;;;;;5.10;3.97;;;;;;;;;;4858288;29;20041;-84
2022/06/01 00:50:36;;;;;;;5.00;4.38;;;;;;;;;;4859098;29;20057;-83
2022/06/01 00:53:06;;;;;;;4.82;4.28;;;;;;;;;;4871974;29;20640;-84
2022/06/01 00:55:35;;;;;;;4.60;3.80;;;;;;;;;;4855556;29;20049;-82
2022/06/01 00:58:07;;;;;;;7.32;4.32;;;;;;;;;;4852032;29;20053;-84
2022/06/01 01:00:38;;;;;;;4.28;3.90;;;;;;;;;;4851627;29;20046;-84
2022/06/01 01:03:06;;;;;;;4.53;4.00;;;;;;;;;;4849628;29;20526;-83
2022/06/01 01:05:34;;;;;;;5.60;4.40;;;;;;;;;;4855782;29;20052;-82
2022/06/01 01:08:04;;;;;;;4.97;4.57;;;;;;;;;;4853849;29;20098;-84
2022/06/01 01:10:32;;;;;;;7.03;4.57;;;;;;;;;;4831764;29;20061;-84
2022/06/01 01:13:05;;;;;;;5.38;4.30;;;;;;;;;;4868528;29;20057;-84
2022/06/01 01:15:35;;;;;;;5.85;4.57;;;;;;;;;;4853343;29;20045;-84
2022/06/01 01:18:06;;;;;;;5.70;4.28;;;;;;;;;;4837057;29;20136;-83
2022/06/01 01:20:35;;;;;;;5.82;4.05;;;;;;;;;;4868676;29;20090;-84
2022/06/01 01:23:12;;;;;;;4.82;3.47;;;;;;;;;;4857546;29;20065;-82
2022/06/01 01:25:51;;;;;;;4.43;3.70;;;;;;;;;;4837142;29;20054;-84
2022/06/01 01:28:19;;;;;;;9.38;4.60;;;;;;;;;;4798787;29;20054;-83
2022/06/01 01:31:02;;;;;;;5.40;4.53;;;;;;;;;;4831373;29;20070;-83
2022/06/01 01:33:30;;;;;;;6.57;3.55;;;;;;;;;;4828685;29;20057;-83
2022/06/01 01:36:04;;;;;;;4.78;3.30;;;;;;;;;;4827391;29;20046;-83
2022/06/01 01:38:41;;;;;;;4.65;4.13;;;;;;;;;;4812026;29;20644;-83
2022/06/01 01:41:34;;;;;;;4.68;4.28;;;;;;;;;;4829091;29;20049;-83
2022/06/01 01:44:06;;;;;;;4.57;4.18;;;;;;;;;;4827010;29;20062;-83
2022/06/01 01:46:34;;;;;;;4.57;4.20;;;;;;;;;;4813138;29;20400;-84
2022/06/01 01:49:04;;;;;;;5.10;4.55;;;;;;;;;;4833391;29;20685;-83
2022/06/01 01:51:32;;;;;;;4.30;3.90;;;;;;;;;;4828156;29;20103;-83
2022/06/01 01:54:00;;;;;;;4.80;4.25;;;;;;;;;;4816112;29;20150;-84
2022/06/01 01:56:45;;;;;;;4.88;4.30;;;;;;;;;;4815927;29;20042;-83
2022/06/01 01:59:24;;;;;;;5.25;3.28;;;;;;;;;;4814416;29;20130;-84
2022/06/01 02:02:00;;;;;;;3.92;3.58;;;;;;;;;;4814452;29;20038;-84
2022/06/01 02:07:25;;;;;;;4.93;4.20;;;;;;;;;;4835238;29;20056;-84
2022/06/01 02:12:41;;;;;;;4.28;3.88;;;;;;;;;;4827310;29;20036;-84
2022/06/01 02:15:21;;;;;;;4.43;3.15;;;;;;;;;;4815401;29;20049;-83
2022/06/01 02:17:51;;;;;;;6.32;3.38;;;;;;;;;;4828129;29;20053;-84
2022/06/01 02:20:40;;;;;;;4.63;3.45;;;;;;;;;;4810128;29;20103;-83
2022/06/01 02:23:11;;;;;;;4.78;3.50;;;;;;;;;;4826043;29;20050;-84
2022/06/01 02:25:40;;;;;;;3.88;3.53;;;;;;;;;;4810778;29;20042;-83
2022/06/01 02:28:09;;;;;;;3.97;3.72;;;;;;;;;;4828408;29;20669;-84
2022/06/01 02:30:39;;;;;;;3.47;3.17;;;;;;;;;;4815509;29;20049;-84
2022/06/01 02:33:09;;;;;;;6.20;3.10;;;;;;;;;;4818729;29;20047;-83
2022/06/01 02:35:38;;;;;;;4.53;3.55;;;;;;;;;;4817208;29;20495;-84
2022/06/01 02:38:10;;;;;;;5.07;3.80;;;;;;;;;;4825068;29;20070;-84
2022/06/01 02:40:40;;;;;;;3.92;3.55;;;;;;;;;;4809639;29;20107;-83
2022/06/01 02:43:09;;;;;;;5.50;3.33;;;;;;;;;;4796550;29;20057;-83
2022/06/01 02:45:37;;;;;;;6.07;3.50;;;;;;;;;;4814449;29;20041;-84
2022/06/01 02:48:05;;;;;;;4.13;3.70;;;;;;;;;;4812052;29;20049;-84
2022/06/01 02:50:36;;;;;;;9.10;3.65;;;;;;;;;;4831069;29;20049;-84
2022/06/01 02:53:05;;;;;;;5.15;3.72;;;;;;;;;;4814394;29;20065;-84
2022/06/01 02:55:34;;;;;;;4.68;4.20;;;;;;;;;;4828278;29;20112;-84
2022/06/01 02:58:02;;;;;;;4.38;4.07;;;;;;;;;;4833818;29;20045;-83
2022/06/01 03:00:37;;;;;;;6.78;4.15;;;;;;;;;;4810321;29;20506;-83
2022/06/01 03:03:06;;;;;;;5.70;4.60;;;;;;;;;;4810346;29;20513;-84
2022/06/01 03:05:35;;;;;;;4.13;3.83;;;;;;;;;;4829519;29;20499;-84
2022/06/01 03:08:06;;;;;;;4.05;3.75;;;;;;;;;;4815191;29;20042;-84
2022/06/01 03:10:34;;;;;;;6.25;3.60;;;;;;;;;;4812869;29;20458;-84
2022/06/01 03:13:04;;;;;;;4.30;3.58;;;;;;;;;;4829576;29;20413;-84
2022/06/01 03:15:31;;;;;;;3.97;3.67;;;;;;;;;;4813040;29;20103;-84
2022/06/01 03:18:01;;;;;;;5.07;3.65;;;;;;;;;;4828494;29;20127;-84
2022/06/01 03:20:29;;;;;;;3.88;3.58;;;;;;;;;;4809639;29;20502;-84
2022/06/01 03:22:58;;;;;;;4.55;3.95;;;;;;;;;;4811385;29;20065;-83
2022/06/01 03:25:26;;;;;;;5.60;4.10;;;;;;;;;;4830698;29;20037;-84
2022/06/01 03:27:57;;;;;;;4.38;3.95;;;;;;;;;;4825811;29;20050;-84
2022/06/01 03:30:25;;;;;;;4.75;4.35;;;;;;;;;;4799914;29;20053;-84
2022/06/01 03:32:53;;;;;;;4.95;4.40;;;;;;;;;;4830487;29;20501;-84
2022/06/01 03:35:22;;;;;;;5.47;4.60;;;;;;;;;;4827433;29;20051;-84
2022/06/01 03:37:50;;;;;;;5.57;5.07;;;;;;;;;;4817767;29;20052;-84
2022/06/01 03:40:19;;;;;;;5.90;4.68;;;;;;;;;;4834906;29;20138;-84
2022/06/01 03:42:46;;;;;;;4.65;4.35;;;;;;;;;;4827945;29;20066;-84
2022/06/01 03:48:00;;;;;;;5.38;4.97;;;;;;;;;;4829216;29;20073;-84
2022/06/01 03:50:29;;;;;;;5.43;4.95;;;;;;;;;;4820675;29;20038;-84
2022/06/01 03:52:59;;;;;;;5.32;4.93;;;;;;;;;;4807648;29;20770;-84
2022/06/01 03:55:29;;;;;;;4.97;4.57;;;;;;;;;;4825122;29;20057;-85
2022/06/01 03:58:06;;;;;;;5.20;4.80;;;;;;;;;;4807428;29;20104;-84
2022/06/01 04:00:41;;;;;;;5.18;4.80;;;;;;;;;;4836520;29;20063;-85
2022/06/01 04:03:16;;;;;;;5.30;4.80;;;;;;;;;;4821677;29;20128;-85
2022/06/01 04:05:44;;;;;;;5.13;4.63;;;;;;;;;;4819183;29;20046;-85
2022/06/01 04:08:13;;;;;;;6.10;5.60;;;;;;;;;;4822299;29;20057;-84
2022/06/01 04:10:43;;;;;;;8.13;5.13;;;;;;;;;;4855350;29;20049;-84
2022/06/01 04:13:12;;;;;;;5.40;4.80;;;;;;;;;;4825447;29;20511;-85
2022/06/01 04:15:43;;;;;;;5.53;5.07;;;;;;;;;;4822377;29;20114;-84
2022/06/01 04:18:10;;;;;;;7.45;5.15;;;;;;;;;;4827640;29;20057;-85
2022/06/01 04:20:52;;;;;;;6.53;5.72;;;;;;;;;;4855135;29;20064;-84
2022/06/01 04:23:20;;;;;;;6.38;5.78;;;;;;;;;;4830271;29;20069;-84
2022/06/01 04:25:47;;;;;;;6.30;5.70;;;;;;;;;;4834677;29;20058;-84
2022/06/01 04:28:15;;;;;;;5.47;5.03;;;;;;;;;;4824554;29;20552;-83
2022/06/01 04:30:43;;;;;;;5.85;5.35;;;;;;;;;;4839678;29;20486;-84
2022/06/01 04:33:11;;;;;;;5.50;5.07;;;;;;;;;;4830876;29;20047;-84
2022/06/01 04:35:39;;;;;;;5.68;5.18;;;;;;;;;;4834841;29;20137;-84
2022/06/01 04:38:23;;;;;;;5.63;5.18;;;;;;;;;;4837556;29;20129;-84
2022/06/01 04:40:51;;;;;;;5.63;5.18;;;;;;;;;;4838031;29;20709;-84
2022/06/01 04:43:25;;;;;;;7.20;4.90;;;;;;;;;;4842676;29;20045;-85
2022/06/01 04:45:56;;;;;;;5.10;4.55;;;;;;;;;;4822034;29;20070;-84
2022/06/01 04:48:27;;;;;;;;;;;;;;;;;;4825171;29;20136;-85
2022/06/01 04:50:56;;;;;;;5.50;5.00;;;;;;;;;;4839223;29;19955;-85
2022/06/01 04:53:52;;;;;;;6.10;5.60;;;;;;;;;;4819704;29;20046;-85
2022/06/01 04:56:33;;;;;;;5.45;4.90;;;;;;;;;;4811893;29;20455;-85
2022/06/01 04:59:29;;;;;;;6.18;5.57;;;;;;;;;;4843177;29;20046;-85
2022/06/01 05:02:09;;;;;;;9.88;5.53;;;;;;;;;;4835318;29;20112;-85
2022/06/01 05:04:45;;;;;;;5.68;5.28;;;;;;;;;;4819981;29;20059;-85
2022/06/01 05:07:28;;;;;;;6.93;5.90;;;;;;;;;;4819544;29;20050;-85
2022/06/01 05:10:48;;;;;;;5.70;5.20;;;;;;;;;;4824176;29;20049;-85
2022/06/01 05:13:29;;;;;;;5.10;4.70;;;;;;;;;;4819456;29;20056;-85
2022/06/01 05:16:50;;;;;;;5.78;4.72;;;;;;;;;;4806657;29;20049;-85
2022/06/01 05:48:31;;;;;;;4.55;4.18;;;;;;;;;;4906041;29;20596;-79
2022/06/01 05:50:59;;;;;;;5.00;4.60;;;;;;;;;;4913746;29;20128;-80
2022/06/01 05:53:26;;;;;;;5.28;4.78;;;;;;;;;;4910634;29;20044;-79
2022/06/01 05:55:54;;;;;;;4.68;4.30;;;;;;;;;;4894198;29;20044;-79
2022/06/01 05:58:22;;;;;;;5.60;4.20;;;;;;;;;;4889442;29;20121;-80
2022/06/01 06:00:51;;;;;;;4.65;3.85;;;;;;;;;;4880284;29;20048;-79
2022/06/01 06:03:19;;;;;;;4.82;4.45;;;;;;;;;;4889021;29;20087;-78
2022/06/01 06:09:02;;;;;;;2.92;2.72;;;;;;;;;;4866254;29;20048;-80
2022/06/01 06:11:32;;;;;;;3.10;2.80;;;;;;;;;;4879574;29;20136;-79
2022/06/01 06:14:02;;;;;;;2.30;2.20;;;;;;;;;;4855675;29;20052;-77
2022/06/01 06:16:31;;;;;;;2.17;2.08;;;;;;;;;;4864177;29;20080;-80
2022/06/01 06:18:59;;;;;;;2.35;2.10;;;;;;;;;;4878026;29;20554;-80
2022/06/01 06:21:28;;;;;;;2.72;2.50;;;;;;;;;;4873262;29;20059;-79
2022/06/01 06:24:09;;;;;;;2.42;2.22;;;;;;;;;;4878271;29;20269;-83
2022/06/01 06:26:37;;;;;;;4.38;2.10;;;;;;;;;;4871631;29;20064;-78
2022/06/01 06:29:07;;;;;;;3.58;2.22;;;;;;;;;;4870731;29;20055;-80
2022/06/01 06:31:34;;;;;;;1.88;1.65;;;;;;;;;;4891221;29;20052;-81
2022/06/01 06:34:01;;;;;;;2.92;2.35;;;;;;;;;;4883072;29;20117;-81
2022/06/01 06:36:32;;;;;;;2.17;2.00;;;;;;;;;;4874342;29;20060;-82
2022/06/01 06:39:00;;;;;;;2.00;1.90;;;;;;;;;;4853428;29;20041;-80
2022/06/01 06:41:30;;;;;;;2.38;2.17;;;;;;;;;;4864251;29;20491;-80
2022/06/01 06:43:59;;;;;;;7.17;2.80;;;;;;;;;;4874658;29;20072;-80
2022/06/01 06:46:26;;;;;;;2.40;2.30;;;;;;;;;;4866490;29;20569;-79
2022/06/01 06:48:54;;;;;;;6.63;2.50;;;;;;;;;;4859687;29;20060;-79
2022/06/01 06:51:25;;;;;;;2.40;2.30;;;;;;;;;;4857705;29;20068;-80
2022/06/01 06:53:53;;;;;;;2.58;1.75;;;;;;;;;;4865876;29;20082;-80
2022/06/01 06:56:21;;;;;;;2.85;2.22;;;;;;;;;;4879809;29;20068;-80
2022/06/01 06:58:50;;;;;;;3.25;2.40;;;;;;;;;;4861627;29;20048;-81
2022/06/01 07:01:18;;;;;;;4.53;2.00;;;;;;;;;;4850446;29;20048;-78
2022/06/01 07:03:47;;;;;;;2.40;2.20;;;;;;;;;;4859196;29;20067;-86
2022/06/01 07:06:21;;;;;;;2.20;2.00;;;;;;;;;;4847628;29;20064;-79
2022/06/01 07:08:52;;;;;;;2.20;2.10;;;;;;;;;;4893019;29;20142;-79
2022/06/01 07:11:20;;;;;;;2.30;2.10;;;;;;;;;;4895447;29;20424;-80
2022/06/01 07:13:48;;;;;;;3.42;2.40;;;;;;;;;;4892403;29;20321;-84
2022/06/01 07:16:24;;;;;;;6.00;2.85;;;;;;;;;;4895823;29;20059;-80
2022/06/01 07:19:06;;;;;;;;;;;;;;;;;;;;;
2022/06/01 07:21:58;;;;;;;3.95;3.30;;;;;;;;;;4893294;29;20204;-81
2022/06/01 07:24:33;;;;;;;6.30;3.83;;;;;;;;;;4908226;23;20618;-84
2022/06/01 07:27:09;;;;;;;7.57;3.45;;;;;;;;;;4868062;29;20105;-84
2022/06/01 07:29:40;;;;;;;2.70;2.50;;;;;;;;;;4884820;29;20057;-84
2022/06/01 07:32:29;;;;;;;3.00;2.83;;;;;;;;;;4856251;29;20080;-83
2022/06/01 07:35:02;;;;;;;3.50;3.20;;;;;;;;;;4871250;29;20521;-84
2022/06/01 07:43:23;;;;;;;3.50;3.30;;;;;;;;;;4874866;29;20045;-84
2022/06/01 07:45:57;;;;;;;3.53;3.33;;;;;;;;;;4872888;29;20049;-83
2022/06/01 07:48:26;;;;;;;4.18;3.70;;;;;;;;;;4869548;29;20052;-83
2022/06/01 07:51:15;;;;;;;3.58;3.30;;;;;;;;;;4872464;29;20696;-83
2022/06/01 07:53:44;;;;;;;3.75;3.50;;;;;;;;;;4893231;29;20417;-83
2022/06/01 07:56:11;;;;;;;3.60;3.40;;;;;;;;;;4881668;29;20064;-83
2022/06/01 07:58:39;;;;;;;4.10;3.70;;;;;;;;;;4874759;29;20048;-83
2022/06/01 08:01:11;;;;;;;3.55;3.33;;;;;;;;;;4869252;29;20064;-84
2022/06/01 08:03:42;;;;;;;5.30;3.50;;;;;;;;;;4871975;29;20066;-84
2022/06/01 08:06:29;;;;;;;3.80;3.50;;;;;;;;;;4868984;29;20298;-84
2022/06/01 08:09:19;;;;;;;4.35;2.90;;;;;;;;;;4866376;29;20057;-84
2022/06/01 08:14:35;;;;;;;3.55;3.35;;;;;;;;;;4859455;29;20045;-83
2022/06/01 08:17:03;;;;;;;3.90;3.42;;;;;;;;;;4857645;29;20049;-82
2022/06/01 08:19:32;;;;;;;3.70;3.35;;;;;;;;;;4876740;29;20515;-82
2022/06/01 08:21:59;;;;;;;3.92;3.00;;;;;;;;;;4877192;29;20053;-84
2022/06/01 08:24:30;;;;;;;3.22;2.92;;;;;;;;;;4878255;29;20053;-81
2022/06/01 08:26:57;;;;;;;3.30;3.00;;;;;;;;;;4872964;29;20596;-81
2022/06/01 08:29:25;;;;;;;3.92;3.20;;;;;;;;;;4876728;29;20513;-83
2022/06/01 08:31:52;;;;;;;3.38;3.10;;;;;;;;;;4882774;29;20425;-83
2022/06/01 08:34:22;;;;;;;3.88;2.97;;;;;;;;;;4881946;29;20069;-82
2022/06/01 08:36:52;;;;;;;4.70;3.08;;;;;;;;;;4874870;29;20076;-83
2022/06/01 08:39:24;;;;;;;4.53;3.47;;;;;;;;;;4877924;29;20115;-83
2022/06/01 08:41:57;;;;;;;5.50;2.88;;;;;;;;;;4878059;29;20041;-83
2022/06/01 08:44:32;;;;;;;3.05;2.85;;;;;;;;;;4880989;29;20049;-84
2022/06/01 08:47:11;;;;;;;4.82;3.20;;;;;;;;;;4878320;29;20071;-82
2022/06/01 08:49:41;;;;;;;3.10;2.85;;;;;;;;;;4876106;29;20059;-83
2022/06/01 08:52:09;;;;;;;3.53;3.30;;;;;;;;;;4877329;29;20041;-83
2022/06/01 08:54:37;;;;;;;3.70;3.40;;;;;;;;;;4877279;29;20069;-82
2022/06/01 08:57:08;;;;;;;5.32;3.45;;;;;;;;;;4862939;29;20064;-83
2022/06/01 08:59:44;;;;;;;3.65;3.35;;;;;;;;;;4886303;29;20080;-84
2022/06/01 09:02:14;;;;;;;3.22;2.90;;;;;;;;;;4884505;29;20101;-84
2022/06/01 09:04:44;;;;;;;3.28;2.97;;;;;;;;;;4886988;29;20047;-83
2022/06/01 09:07:28;;;;;;;4.47;3.00;;;;;;;;;;4881876;29;20418;-84
2022/06/01 09:10:20;;;;;;;3.50;3.20;;;;;;;;;;4871479;29;20083;-84
2022/06/01 09:12:57;;;;;;;3.10;2.80;;;;;;;;;;4876003;29;20041;-83
2022/06/01 09:15:28;;;;;;;3.38;3.08;;;;;;;;;;4862488;29;20574;-89
2022/06/01 09:17:56;;;;;;;3.97;3.00;;;;;;;;;;4876586;29;20037;-83
2022/06/01 09:23:12;;;;;;;2.72;2.63;;;;;;;;;;4858992;29;20041;-83
2022/06/01 09:25:39;;;;;;;6.00;2.35;;;;;;;;;;4875809;29;20051;-83
2022/06/01 09:28:19;;;;;;;2.80;2.60;;;;;;;;;;4876018;29;20061;-82
2022/06/01 09:30:50;;;;;;;2.58;2.38;;;;;;;;;;4877535;29;20335;-83
2022/06/01 09:33:29;;;;;;;2.60;2.17;;;;;;;;;;4877390;29;20045;-83
2022/06/01 09:36:09;;;;;;;4.93;2.50;;;;;;;;;;4876267;29;20049;-81
2022/06/01 09:38:51;;;;;;;2.33;2.10;;;;;;;;;;4876530;29;20043;-84
2022/06/01 09:41:40;;;;;;;2.67;2.30;;;;;;;;;;4852232;29;20094;-83
2022/06/01 09:44:23;;;;;;;2.60;2.40;;;;;;;;;;4857566;29;20061;-83
2022/06/01 09:46:54;;;;;;;3.80;2.63;;;;;;;;;;4886013;29;20148;-82
2022/06/01 09:49:26;;;;;;;3.53;2.08;;;;;;;;;;4874851;29;20098;-83
2022/06/01 09:52:02;;;;;;;3.40;2.10;;;;;;;;;;4877124;29;20129;-83
2022/06/01 09:54:33;;;;;;;3.38;1.83;;;;;;;;;;4873747;29;20048;-83
2022/06/01 09:57:32;;;;;;;2.35;2.05;;;;;;;;;;4874286;29;20121;-83
2022/06/01 10:06:25;;;;;;;1.80;1.70;;;;;;;;;;4865170;29;20068;-83
2022/06/01 10:09:30;;;;;;;2.40;2.20;;;;;;;;;;4877751;29;20053;-84
2022/06/01 10:13:12;;;;;;;;;;;;;;;;;;;;;
2022/06/01 10:15:53;;;;;;;2.20;1.70;;;;;;;;;;4869535;29;20053;-83
2022/06/01 10:18:44;;;;;;;4.40;2.10;;;;;;;;;;4827252;29;20495;-83
2022/06/01 10:21:14;;;;;;;2.33;2.15;;;;;;;;;;4876606;29;20097;-82
2022/06/01 10:23:54;;;;;;;2.20;2.00;;;;;;;;;;4888507;29;20066;-83
2022/06/01 10:26:24;;;;;;;3.05;2.17;;;;;;;;;;4880427;29;20053;-84
2022/06/01 10:29:04;;;;;;;2.00;1.90;;;;;;;;;;4874391;29;20044;-84
2022/06/01 10:32:03;;;;;;;1.73;1.63;;;;;;;;;;4869455;29;20052;-84
2022/06/01 10:34:45;;;;;;;2.33;1.70;;;;;;;;;;4862836;29;20145;-84
2022/06/01 10:37:23;;;;;;;2.08;1.80;;;;;;;;;;4870273;29;20052;-84
2022/06/01 10:39:53;;;;;;;1.92;1.83;;;;;;;;;;4877247;29;20128;-84
2022/06/01 10:43:16;;;;;;;1.88;1.75;;;;;;;;;;4874982;29;20045;-83
2022/06/01 10:45:15;;;;;;;1.83;1.73;;;;;;;;;;4876324;29;20041;-84
2022/06/01 10:48:18;;;;;;;2.45;1.90;;;;;;;;;;4875827;29;20051;-83
2022/06/01 10:50:53;;;;;;;1.63;1.50;;;;;;;;;;4800397;29;20055;-83
2022/06/01 10:53:20;;;;;;;3.00;1.75;;;;;;;;;;4863085;29;20465;-82
2022/06/01 10:55:48;;;;;;;1.80;1.70;;;;;;;;;;4873278;29;20042;-84
2022/06/01 10:58:18;;;;;;;2.58;1.85;;;;;;;;;;4861316;29;20041;-83
2022/06/01 11:00:51;;;;;;;3.33;1.75;;;;;;;;;;4868632;29;20049;-82
2022/06/01 11:03:20;;;;;;;2.00;1.90;;;;;;;;;;4866638;29;21638;-83
2022/06/01 11:05:47;;;;;;;1.98;1.80;;;;;;;;;;4888276;29;20077;-83
2022/06/01 11:08:29;;;;;;;2.42;1.70;;;;;;;;;;4874244;29;20056;-85
2022/06/01 11:10:57;;;;;;;2.33;1.80;;;;;;;;;;4889268;29;20125;-85
2022/06/01 11:13:31;;;;;;;3.03;1.98;;;;;;;;;;4869865;29;20061;-85
2022/06/01 11:16:06;;;;;;;4.70;1.70;;;;;;;;;;4870391;29;20037;-85
2022/06/01 11:18:40;;;;;;;3.33;1.70;;;;;;;;;;4867103;29;20535;-85
2022/06/01 11:21:19;;;;;;;2.45;1.70;;;;;;;;;;4868098;29;20045;-82
2022/06/01 11:24:09;;;;;;;1.90;1.38;;;;;;;;;;4866946;29;20124;-83
2022/06/01 11:27:08;;;;;;;1.38;1.17;;;;;;;;;;4868474;29;20899;-85
2022/06/01 11:29:44;;;;;;;1.77;1.67;;;;;;;;;;4867832;29;20101;-84
2022/06/01 11:32:17;;;;;;;1.42;1.33;;;;;;;;;;4869944;29;20045;-84
2022/06/01 11:34:49;;;;;;;1.13;1.13;;;;;;;;;;4869084;29;20403;-83
2022/06/01 11:37:23;;;;;;;1.15;1.10;;;;;;;;;;4843778;29;20056;-85
2022/06/01 11:40:19;;;;;;;2.70;1.05;;;;;;;;;;4868291;29;20049;-82
2022/06/01 11:42:56;;;;;;;1.02;0.88;;;;;;;;;;4855973;29;20473;-84
2022/06/01 11:45:29;;;;;;;1.75;1.10;;;;;;;;;;4866967;29;20045;-84
2022/06/01 11:48:02;;;;;;;2.97;1.40;;;;;;;;;;4870486;29;20057;-83
2022/06/01 11:50:32;;;;;;;4.57;1.60;;;;;;;;;;4867422;29;20041;-83
2022/06/01 11:53:27;;;;;;;1.20;1.20;;;;;;;;;;4848936;29;20064;-83
2022/06/01 11:56:23;;;;;;;1.02;0.95;;;;;;;;;;4862490;29;20037;-83
2022/06/01 11:59:01;;;;;;;1.38;1.27;;;;;;;;;;4866962;29;20581;-84
2022/06/01 12:01:33;;;;;;;1.60;1.50;;;;;;;;;;4864285;29;20048;-83
2022/06/01 12:04:18;;;;;;;2.38;1.20;;;;;;;;;;4867231;29;20037;-83
2022/06/01 12:07:01;;;;;;;3.08;1.50;;;;;;;;;;4836710;29;20052;-83
2022/06/01 12:10:07;;;;;;;1.52;1.30;;;;;;;;;;4856316;29;20124;-84
2022/06/01 12:12:57;;;;;;;2.67;1.30;;;;;;;;;;4856356;29;20089;-83
2022/06/01 12:16:25;;;;;;;1.58;1.25;;;;;;;;;;4855441;29;20053;-83
2022/06/01 12:19:00;;;;;;;2.33;1.20;;;;;;;;;;4854879;29;20093;-84
2022/06/01 12:21:36;;;;;;;2.38;1.20;;;;;;;;;;4869068;29;20527;-82
2022/06/01 12:28:31;;;;;;;1.27;1.02;;;;;;;;;;4865386;29;20049;-83
2022/06/01 12:30:13;;;;;;;1.17;1.10;;;;;;;;;;4862747;29;20048;-83
2022/06/01 12:32:59;;;;;;;1.10;1.00;;;;;;;;;;4867768;29;20069;-82
2022/06/01 12:35:29;;;;;;;1.33;1.23;;;;;;;;;;4859282;29;20072;-82
2022/06/01 12:38:03;;;;;;;3.50;1.38;;;;;;;;;;4866825;29;20155;-83
2022/06/01 12:40:31;;;;;;;2.97;1.20;;;;;;;;;;4865013;29;20479;-84
2022/06/01 12:43:03;;;;;;;1.20;1.17;;;;;;;;;;4865379;29;20040;-83
2022/06/01 12:45:42;;;;;;;1.48;1.38;;;;;;;;;;4879584;29;20048;-84
2022/06/01 12:48:14;;;;;;;3.67;1.50;;;;;;;;;;4866788;29;20075;-85
2022/06/01 12:50:49;;;;;;;2.50;1.25;;;;;;;;;;4865110;29;20056;-84
2022/06/01 12:53:31;;;;;;;2.42;1.20;;;;;;;;;;4866568;29;20041;-83
2022/06/01 12:56:09;;;;;;;1.30;1.20;;;;;;;;;;4861286;29;20814;-84
2022/06/01 12:58:40;;;;;;;1.35;1.00;;;;;;;;;;4850243;29;20145;-84
2022/06/01 13:01:13;;;;;;;2.22;1.40;;;;;;;;;;4852003;29;20060;-84
2022/06/01 13:03:46;;;;;;;1.40;1.30;;;;;;;;;;4860969;29;20056;-83
2022/06/01 13:06:16;;;;;;;2.17;1.10;;;;;;;;;;4867420;29;20198;-84
2022/06/01 13:08:55;;;;;;;2.13;1.13;;;;;;;;;;4861167;29;20105;-83
2022/06/01 13:11:27;;;;;;;1.08;0.98;;;;;;;;;;4865255;29;20056;-83
2022/06/01 13:13:57;;;;;;;1.08;0.98;;;;;;;;;;4864315;29;20040;-83
2022/06/01 13:16:46;;;;;;;1.33;1.13;;;;;;;;;;4864301;29;20045;-84
2022/06/01 13:19:30;;;;;;;1.70;1.10;;;;;;;;;;4862056;29;20584;-84
2022/06/01 13:22:02;;;;;;;2.35;1.00;;;;;;;;;;4861795;29;20048;-83
2022/06/01 13:25:05;;;;;;;1.10;1.00;;;;;;;;;;4868916;29;20201;-82
2022/06/01 13:27:37;;;;;;;1.23;0.98;;;;;;;;;;4870132;29;20050;-83
2022/06/01 13:30:09;;;;;;;1.38;1.20;;;;;;;;;;4865128;29;20438;-83
2022/06/01 13:33:39;;;;;;;1.30;1.20;;;;;;;;;;4878297;29;20045;-84
2022/06/01 13:36:32;;;;;;;1.50;1.15;;;;;;;;;;4851875;29;20148;-83
2022/06/01 13:42:41;;;;;;;1.13;1.00;;;;;;;;;;4864442;29;20048;-82
2022/06/01 13:45:18;;;;;;;1.00;1.00;;;;;;;;;;4867607;29;20145;-83
2022/06/01 13:48:24;;;;;;;1.80;0.90;;;;;;;;;;4858106;29;20064;-83
2022/06/01 13:51:01;;;;;;;1.15;0.93;;;;;;;;;;4863144;29;20048;-84
2022/06/01 13:53:49;;;;;;;1.75;1.00;;;;;;;;;;4862258;29;20893;-83
2022/06/01 13:56:40;;;;;;;1.63;0.90;;;;;;;;;;4872849;29;20036;-83
2022/06/01 13:59:27;;;;;;;2.13;1.02;;;;;;;;;;4866812;29;20497;-83
2022/06/01 14:02:14;;;;;;;1.80;1.00;;;;;;;;;;4864693;29;20056;-83
2022/06/01 14:04:43;;;;;;;0.80;0.80;;;;;;;;;;4866334;29;20056;-84
2022/06/01 14:07:13;;;;;;;3.08;1.10;;;;;;;;;;4866053;29;20502;-83
2022/06/01 14:10:01;;;;;;;2.80;1.00;;;;;;;;;;4864372;29;20045;-82
2022/06/01 14:12:28;;;;;;;1.10;0.90;;;;;;;;;;4867038;29;20120;-83
2022/06/01 14:14:59;;;;;;;1.15;1.00;;;;;;;;;;4865569;29;20109;-82
2022/06/01 14:17:46;;;;;;;1.35;1.10;;;;;;;;;;4861565;29;20105;-82
2022/06/01 14:20:21;;;;;;;2.05;1.00;;;;;;;;;;4873217;29;20056;-83
2022/06/01 14:22:57;;;;;;;1.30;1.10;;;;;;;;;;4872174;29;20045;-83
2022/06/01 14:28:39;;;;;;;1.13;1.00;;;;;;;;;;4850983;29;20060;-83
2022/06/01 14:31:14;;;;;;;1.88;1.05;;;;;;;;;;4860943;29;20096;-83
2022/06/01 14:33:44;;;;;;;1.10;1.10;;;;;;;;;;4866726;29;20041;-83
2022/06/01 14:36:12;;;;;;;1.00;1.00;;;;;;;;;;4865524;29;20135;-83
2022/06/01 14:38:49;;;;;;;1.35;1.00;;;;;;;;;;4866796;29;20041;-83
2022/06/01 14:41:25;;;;;;;1.13;1.00;;;;;;;;;;4866524;29;20048;-83
2022/06/01 14:43:53;;;;;;;3.70;1.02;;;;;;;;;;4867697;29;20070;-84
2022/06/01 14:46:24;;;;;;;1.38;1.10;;;;;;;;;;4860235;29;20080;-84
2022/06/01 14:48:57;;;;;;;0.98;0.90;;;;;;;;;;4866707;29;20049;-83
2022/06/01 14:51:31;;;;;;;1.52;1.10;;;;;;;;;;4865717;29;20161;-84
2022/06/01 14:54:02;;;;;;;1.40;1.23;;;;;;;;;;4867608;29;20049;-84
2022/06/01 14:56:30;;;;;;;2.42;1.00;;;;;;;;;;4834431;29;20157;-84
2022/06/01 14:59:01;;;;;;;1.85;1.20;;;;;;;;;;4866905;29;20037;-83
2022/06/01 15:01:40;;;;;;;2.03;1.20;;;;;;;;;;4865606;29;20063;-83
2022/06/01 15:04:14;;;;;;;1.13;1.00;;;;;;;;;;4865692;29;20532;-83
2022/06/01 15:06:43;;;;;;;3.08;1.33;;;;;;;;;;4865964;29;20045;-83
2022/06/01 15:09:12;;;;;;;1.75;1.17;;;;;;;;;;4866134;29;20053;-84
2022/06/01 15:11:39;;;;;;;1.10;0.90;;;;;;;;;;4868023;29;20045;-82
2022/06/01 15:14:08;;;;;;;0.95;0.80;;;;;;;;;;4862607;29;20087;-84
2022/06/01 15:16:41;;;;;;;1.38;0.95;;;;;;;;;;4862602;29;20041;-84
2022/06/01 15:19:41;;;;;;;0.85;0.75;;;;;;;;;;4863125;29;20059;-83
2022/06/01 15:22:09;;;;;;;1.08;0.80;;;;;;;;;;4866105;29;20140;-82
2022/06/01 15:24:36;;;;;;;1.85;1.00;;;;;;;;;;4867280;29;20484;-82
2022/06/01 15:27:04;;;;;;;2.33;1.08;;;;;;;;;;4867813;29;20056;-82
2022/06/01 15:40:46;;;;;;;1.08;1.00;;;;;;;;;;4861836;29;20553;-83
2022/06/01 15:43:14;;;;;;;1.67;1.00;;;;;;;;;;4869085;29;20148;-82
2022/06/01 15:45:43;;;;;;;1.10;1.00;;;;;;;;;;4854890;29;20060;-82
2022/06/01 15:48:13;;;;;;;1.27;1.20;;;;;;;;;;4869049;29;20057;-83
2022/06/01 15:50:41;;;;;;;1.50;1.40;;;;;;;;;;4870504;29;20041;-83
2022/06/01 15:53:08;;;;;;;0.93;0.93;;;;;;;;;;4864883;29;20053;-82
2022/06/01 15:55:35;;;;;;;2.92;1.17;;;;;;;;;;4870036;29;20082;-83
2022/06/01 15:58:05;;;;;;;1.27;1.17;;;;;;;;;;4883976;29;20045;-83
2022/06/01 16:00:33;;;;;;;1.60;1.00;;;;;;;;;;4869966;29;20045;-83
2022/06/01 16:03:04;;;;;;;4.25;1.42;;;;;;;;;;4869103;29;20036;-83
2022/06/01 16:05:33;;;;;;;6.38;5.95;;;;;;;;;;4867166;29;20049;-83
2022/06/01 16:08:00;;;;;;;2.80;1.63;;;;;;;;;;4867540;29;20202;-82
2022/06/01 16:10:27;;;;;;;2.92;1.17;;;;;;;;;;4867957;29;20487;-82
2022/06/01 16:12:55;;;;;;;4.40;1.38;;;;;;;;;;4868596;29;20327;-81
2022/06/01 16:15:22;;;;;;;2.10;1.05;;;;;;;;;;4866119;29;20064;-83
2022/06/01 16:17:51;;;;;;;2.88;1.30;;;;;;;;;;4873119;29;20041;-82
2022/06/01 16:20:21;;;;;;;1.30;1.20;;;;;;;;;;4875066;29;20500;-82
2022/06/01 16:22:48;;;;;;;1.92;1.23;;;;;;;;;;4874522;29;20049;-83
2022/06/01 16:25:16;;;;;;;1.50;1.40;;;;;;;;;;4867618;29;20084;-83
2022/06/01 16:27:44;;;;;;;2.50;1.20;;;;;;;;;;4869767;29;21390;-83
2022/06/01 16:30:12;;;;;;;2.97;1.10;;;;;;;;;;4868622;29;20044;-83
2022/06/01 16:32:44;;;;;;;2.20;1.20;;;;;;;;;;4869075;29;20053;-83
2022/06/01 16:35:13;;;;;;;2.97;1.35;;;;;;;;;;4868655;29;20041;-82
2022/06/01 16:37:41;;;;;;;5.07;1.35;;;;;;;;;;4869822;29;20041;-82
2022/06/01 16:40:11;;;;;;;2.53;1.15;;;;;;;;;;4870307;29;20049;-84
2022/06/01 16:42:39;;;;;;;2.85;1.30;;;;;;;;;;4871065;29;20128;-83
2022/06/01 16:45:14;;;;;;;3.65;1.40;;;;;;;;;;4869897;29;20109;-83
2022/06/01 16:47:45;;;;;;;1.40;1.30;;;;;;;;;;4884431;29;20678;-83